KOXC/OXC METAR and TAF weather

Enter ICAO airport designator
Station Type Date Time Source
KOXC METAR 2020/06/05 23:51 UTC NOAA

KOXC 052351Z 20008KT 8SM BKN011 22/21 A2990 RMK AO2 SLP133 60000 T02170206 10233 20217 50006


Station Type Date Time Source
KOXC Decoded METAR 2020/06/05 23:51 UTC NOAA

Oxford, Waterbury-Oxford Airport, CT, United States (KOXC) 41-29N 073-08W
Jun 05, 2020 - 07:51 PM EDT / 2020.06.05 2351 UTC
Wind: from the SSW (200 degrees) at 9 MPH (8 KT):0
Visibility: 8 mile(s):0
Sky conditions: mostly cloudy
Temperature: 71.1 F (21.7 C)
Dew Point: 69.1 F (20.6 C)
Relative Humidity: 93%
Pressure (altimeter): 29.9 in. Hg (1012 hPa)
Pressure tendency: 0.02 inches (0.6 hPa) higher than three hours ago
ob: KOXC 052351Z 20008KT 8SM BKN011 22/21 A2990 RMK AO2 SLP133 60000 T02170206 10233 20217 50006
cycle: 0

Station Type Date Time Source
KOXC TAF UTC NOAA

Error!

Example: see airport list